Time;durP1;ratioP1;P1;durP2;ratioP2;P2;SDS_P1;SDS_P2;PMS_P1;PMS_P2;Temp;Humidity;BMP_temperature;BMP_pressure;BME280_temperature;BME280_humidity;BME280_pressure;Samples;Min_cycle;Max_cycle;Signal;HPM_P1;HPM_P2
2022/01/15 00:00:11;;;;;;;165.38;37.85;;;;;;;2.42;100.00;103268.19;5005917;28;20026;-60
2022/01/15 00:02:36;;;;;;;175.52;38.97;;;;;;;2.43;100.00;103269.91;5006024;28;20021;-60
2022/01/15 00:05:02;;;;;;;149.07;39.92;;;;;;;2.47;100.00;103274.13;5006202;28;20153;-61
2022/01/15 00:07:27;;;;;;;126.50;37.65;;;;;;;2.44;100.00;103277.94;5005946;28;20033;-60
2022/01/15 00:09:52;;;;;;;160.50;37.85;;;;;;;2.48;100.00;103274.00;5006469;28;20026;-60
2022/01/15 00:12:17;;;;;;;182.82;38.97;;;;;;;2.44;100.00;103267.09;5006016;28;20026;-60
2022/01/15 00:14:43;;;;;;;143.00;36.05;;;;;;;2.46;100.00;103266.97;5006163;28;20038;-60
2022/01/15 00:17:20;;;;;;;181.38;39.85;;;;;;;2.43;100.00;103268.06;5005161;28;20029;-60
2022/01/15 00:19:46;;;;;;;137.52;35.58;;;;;;;2.44;100.00;103266.25;5006532;28;20033;-60
2022/01/15 00:22:16;;;;;;;154.40;37.55;;;;;;;2.42;100.00;103269.03;5004209;28;20026;-60
2022/01/15 00:24:43;;;;;;;161.32;37.40;;;;;;;2.40;100.00;103264.75;5005994;28;20112;-60
2022/01/15 00:27:09;;;;;;;136.05;37.72;;;;;;;2.34;100.00;103261.50;5005330;28;20026;-60
2022/01/15 00:29:35;;;;;;;134.38;34.33;;;;;;;2.34;100.00;103266.06;5006168;28;20537;-60
2022/01/15 00:32:00;;;;;;;128.35;33.55;;;;;;;2.34;100.00;103257.94;5006057;28;20115;-60
2022/01/15 00:34:26;;;;;;;131.98;34.92;;;;;;;2.31;100.00;103260.88;5004783;28;20618;-60
2022/01/15 00:36:52;;;;;;;143.15;36.97;;;;;;;2.31;100.00;103250.03;5005546;28;20052;-60
2022/01/15 00:39:17;;;;;;;141.55;33.85;;;;;;;2.31;100.00;103253.59;5006228;28;20422;-59
2022/01/15 00:41:43;;;;;;;186.88;35.08;;;;;;;2.30;100.00;103251.03;5005470;28;20038;-60
2022/01/15 00:44:08;;;;;;;199.77;35.63;;;;;;;2.33;100.00;103248.06;5005608;28;20061;-60
2022/01/15 00:46:33;;;;;;;163.02;35.58;;;;;;;2.33;100.00;103238.09;5004096;28;20044;-60
2022/01/15 00:48:58;;;;;;;181.98;37.15;;;;;;;2.33;100.00;103231.78;5006331;28;20037;-59
2022/01/15 00:51:25;;;;;;;142.93;35.28;;;;;;;2.33;100.00;103231.78;5005158;28;20022;-60
2022/01/15 00:53:50;;;;;;;171.23;36.95;;;;;;;2.34;100.00;103225.41;5005377;28;20018;-60
2022/01/15 00:56:15;;;;;;;147.68;35.97;;;;;;;2.35;100.00;103224.41;5005343;28;20041;-60
2022/01/15 00:58:40;;;;;;;152.05;36.85;;;;;;;2.36;100.00;103222.56;5005574;28;20034;-60
2022/01/15 01:01:06;;;;;;;175.20;35.97;;;;;;;2.36;100.00;103219.84;5004622;28;20062;-60
2022/01/15 01:03:31;;;;;;;156.48;35.35;;;;;;;2.37;100.00;103224.28;4988566;28;20022;-60
2022/01/15 01:05:56;;;;;;;165.95;36.75;;;;;;;2.34;100.00;103226.25;5005270;28;20065;-60
2022/01/15 01:08:21;;;;;;;140.10;34.45;;;;;;;2.33;100.00;103226.34;5004901;28;20029;-60
2022/01/15 01:24:01;;;;;;;143.40;35.25;;;;;;;2.18;100.00;103206.75;5005550;28;20058;-60
2022/01/15 01:26:32;;;;;;;149.73;36.38;;;;;;;2.17;100.00;103202.28;5004938;28;20405;-59
2022/01/15 01:29:11;;;;;;;131.63;33.45;;;;;;;2.17;100.00;103201.41;5005196;28;20025;-60
2022/01/15 01:31:51;;;;;;;128.13;32.22;;;;;;;2.18;100.00;103206.75;5004286;28;20037;-60
2022/01/15 01:34:17;;;;;;;136.27;33.70;;;;;;;2.17;100.00;103205.00;5005375;28;20080;-60
2022/01/15 01:39:14;;;;;;;146.27;34.75;;;;;;;2.16;100.00;103196.97;5004875;28;20030;-60
2022/01/15 01:41:48;;;;;;;123.63;32.78;;;;;;;2.17;100.00;103201.41;5003851;28;20037;-60
2022/01/15 01:44:18;;;;;;;131.30;32.58;;;;;;;2.17;100.00;103193.28;5005061;28;20030;-60
2022/01/15 01:46:52;;;;;;;113.88;31.17;;;;;;;2.16;100.00;103199.69;5004256;28;20026;-60
2022/01/15 01:49:19;;;;;;;117.88;31.00;;;;;;;2.14;100.00;103193.53;5004410;28;20088;-60
2022/01/15 01:51:45;;;;;;;127.80;32.25;;;;;;;2.14;100.00;103194.41;5004886;28;20113;-59
2022/01/15 01:54:13;;;;;;;110.90;30.02;;;;;;;2.13;100.00;103189.97;5004479;28;20052;-59
2022/01/15 01:56:39;;;;;;;109.97;30.67;;;;;;;2.14;100.00;103182.69;5004180;28;20408;-59
2022/01/15 01:59:06;;;;;;;105.35;29.67;;;;;;;2.12;100.00;103190.06;5004269;28;20076;-60
2022/01/15 02:01:31;;;;;;;110.18;32.15;;;;;;;2.15;100.00;103185.28;5003678;28;20029;-60
2022/01/15 02:03:57;;;;;;;112.90;31.42;;;;;;;2.11;100.00;103172.06;5004722;28;20392;-59
2022/01/15 02:06:22;;;;;;;118.10;30.42;;;;;;;2.11;100.00;103170.22;5004085;28;20103;-59
2022/01/15 02:08:49;;;;;;;110.47;28.77;;;;;;;2.12;100.00;103179.22;5002848;28;20034;-59
2022/01/15 02:11:15;;;;;;;106.70;28.70;;;;;;;2.11;100.00;103170.22;5003125;28;20061;-59
2022/01/15 02:13:43;;;;;;;95.63;27.50;;;;;;;2.08;100.00;103179.47;5004606;28;20280;-59
2022/01/15 02:16:10;;;;;;;107.75;27.90;;;;;;;2.06;100.00;103180.56;5003595;28;20072;-59
2022/01/15 02:18:36;;;;;;;110.07;30.70;;;;;;;2.02;100.00;103179.91;5004363;28;20055;-59
2022/01/15 02:23:41;;;;;;;103.35;30.95;;;;;;;2.03;100.00;103178.09;5004753;28;20121;-60
2022/01/15 02:26:08;;;;;;;106.72;29.33;;;;;;;2.05;100.00;103176.13;5003521;28;20018;-59
2022/01/15 02:28:39;;;;;;;104.55;28.08;;;;;;;2.03;100.00;103164.56;5004408;28;20485;-59
2022/01/15 02:31:07;;;;;;;114.43;29.48;;;;;;;2.00;100.00;103159.34;5003367;28;20037;-60
2022/01/15 02:33:34;;;;;;;103.30;30.35;;;;;;;1.98;100.00;103156.78;5004057;28;20403;-60
2022/01/15 02:36:01;;;;;;;107.35;31.10;;;;;;;1.99;100.00;103161.19;5003809;28;20022;-59
2022/01/15 02:38:26;;;;;;;110.75;30.38;;;;;;;1.99;100.00;103163.91;5004429;28;20044;-59
2022/01/15 02:40:52;;;;;;;100.25;28.23;;;;;;;1.99;100.00;103154.91;5003721;28;20030;-59
2022/01/15 02:43:21;;;;;;;107.90;30.75;;;;;;;1.98;100.00;103145.94;5004183;28;20109;-59
2022/01/15 02:45:55;;;;;;;105.78;30.15;;;;;;;2.00;100.00;103143.09;5003110;28;20373;-59
2022/01/15 02:48:24;;;;;;;100.55;29.35;;;;;;;2.01;100.00;103150.22;5005472;28;20128;-59
2022/01/15 02:50:49;;;;;;;104.13;32.28;;;;;;;2.00;100.00;103138.53;5007901;28;20033;-59
2022/01/15 02:53:18;;;;;;;107.43;29.98;;;;;;;2.00;100.00;103126.81;5007778;28;20037;-59
2022/01/15 02:58:12;;;;;;;117.75;33.53;;;;;;;2.00;100.00;103116.00;5013074;23;20050;-59
2022/01/15 03:00:38;;;;;;;122.05;37.38;;;;;;;2.01;100.00;103118.56;5006480;28;20030;-59
2022/01/15 03:03:04;;;;;;;125.63;35.83;;;;;;;2.02;100.00;103120.28;5007416;28;20072;-60
2022/01/15 03:05:29;;;;;;;130.30;38.45;;;;;;;2.03;100.00;103115.75;5008152;28;20084;-59
2022/01/15 03:07:54;;;;;;;130.68;38.85;;;;;;;2.06;100.00;103107.38;5007891;28;20021;-59
2022/01/15 03:10:20;;;;;;;141.93;37.38;;;;;;;2.06;100.00;103100.09;5007362;28;20050;-59
2022/01/15 03:12:45;;;;;;;136.93;35.97;;;;;;;2.06;100.00;103094.69;5007840;28;20022;-60
2022/01/15 03:15:17;;;;;;;130.80;37.67;;;;;;;2.06;100.00;103097.38;5006513;28;20125;-59
2022/01/15 03:17:42;;;;;;;121.45;36.42;;;;;;;2.04;100.00;103093.94;5007487;28;20030;-59
2022/01/15 03:20:08;;;;;;;133.00;35.35;;;;;;;2.03;100.00;103086.81;5007397;28;20036;-60
2022/01/15 03:22:33;;;;;;;112.95;33.25;;;;;;;2.00;100.00;103089.75;5007150;28;20033;-60
2022/01/15 03:24:58;;;;;;;111.95;33.22;;;;;;;2.03;100.00;103094.09;5007120;28;20064;-59
2022/01/15 03:27:24;;;;;;;111.78;34.10;;;;;;;2.01;100.00;103079.75;5006989;28;20041;-59
2022/01/15 03:29:51;;;;;;;130.55;33.65;;;;;;;2.00;100.00;103080.75;5007542;28;20029;-59
2022/01/15 03:32:17;;;;;;;134.40;37.28;;;;;;;1.99;100.00;103085.31;5005791;28;20030;-59
2022/01/15 03:34:42;;;;;;;137.98;37.70;;;;;;;1.99;100.00;103093.44;5007402;28;20121;-59
2022/01/15 03:37:08;;;;;;;126.20;35.50;;;;;;;2.01;100.00;103074.34;5007034;28;20120;-59
2022/01/15 03:39:35;;;;;;;122.35;33.20;;;;;;;2.03;100.00;103070.56;5007062;28;20037;-60
2022/01/15 03:42:01;;;;;;;119.82;33.28;;;;;;;2.05;100.00;103075.84;5007246;28;20030;-59
2022/01/15 03:44:26;;;;;;;108.43;33.78;;;;;;;2.03;100.00;103083.25;5007271;28;20097;-59
2022/01/15 03:46:51;;;;;;;120.70;34.45;;;;;;;2.03;100.00;103072.41;5005732;28;20041;-59
2022/01/15 03:49:17;;;;;;;118.50;35.05;;;;;;;2.05;100.00;103078.53;5005491;28;20547;-60
2022/01/15 03:51:42;;;;;;;129.27;35.15;;;;;;;2.05;100.00;103079.41;5007146;28;20411;-60
2022/01/15 03:54:07;;;;;;;121.32;36.40;;;;;;;2.04;100.00;103077.69;5007031;28;20030;-59
2022/01/15 03:56:33;;;;;;;128.85;37.55;;;;;;;2.06;100.00;103078.41;5006141;28;20061;-60
2022/01/15 03:58:58;;;;;;;91.03;30.88;;;;;;;2.08;100.00;103075.63;5005297;28;20087;-59
2022/01/15 04:01:23;;;;;;;97.85;32.92;;;;;;;2.04;100.00;103074.13;5005817;28;20065;-59
2022/01/15 04:03:48;;;;;;;107.20;33.10;;;;;;;1.93;100.00;103068.69;5006542;28;20611;-59
2022/01/15 04:06:14;;;;;;;112.28;34.08;;;;;;;1.92;100.00;103064.22;5006121;28;20042;-60
2022/01/15 04:08:39;;;;;;;101.15;33.03;;;;;;;1.93;100.00;103057.84;5006496;28;20018;-59
2022/01/15 04:11:05;;;;;;;96.05;31.10;;;;;;;1.93;100.00;103055.13;5005713;28;20033;-60
2022/01/15 04:13:30;;;;;;;104.65;33.63;;;;;;;1.93;100.00;103053.28;5006842;28;20062;-59
2022/01/15 04:15:56;;;;;;;101.50;35.17;;;;;;;1.92;100.00;103047.97;5005281;28;20030;-59
2022/01/15 04:18:22;;;;;;;102.70;33.67;;;;;;;1.89;100.00;103048.22;5006206;28;20030;-59
2022/01/15 04:20:48;;;;;;;89.82;32.30;;;;;;;1.89;100.00;103045.50;5006469;28;20053;-59
2022/01/15 04:23:13;;;;;;;98.40;34.28;;;;;;;1.88;100.00;103041.09;5006144;28;20368;-59
2022/01/15 04:25:39;;;;;;;102.60;33.53;;;;;;;1.88;100.00;103038.38;5005942;28;20487;-59
2022/01/15 04:28:09;;;;;;;103.88;33.13;;;;;;;1.88;100.00;103041.94;5005902;28;20034;-59
2022/01/15 04:30:35;;;;;;;94.38;32.28;;;;;;;1.90;100.00;103028.25;5005672;28;20030;-60
2022/01/15 04:33:00;;;;;;;87.55;30.60;;;;;;;1.89;100.00;103030.09;5006636;28;20072;-59
2022/01/15 04:35:26;;;;;;;89.65;31.13;;;;;;;1.91;100.00;103029.97;5005936;28;20053;-59
2022/01/15 04:37:56;;;;;;;80.13;27.67;;;;;;;1.93;100.00;103034.31;5006016;28;20052;-59
2022/01/15 04:40:22;;;;;;;78.70;24.23;;;;;;;1.92;100.00;103029.84;5004546;28;20034;-59
2022/01/15 04:42:47;;;;;;;86.68;28.60;;;;;;;1.95;100.00;103016.06;5005691;28;20037;-59
2022/01/15 04:45:13;;;;;;;86.93;26.95;;;;;;;1.93;100.00;103022.63;5004473;28;20048;-59
2022/01/15 04:47:39;;;;;;;87.13;29.90;;;;;;;1.97;100.00;103024.06;5005582;28;20037;-60
2022/01/15 04:50:07;;;;;;;85.80;31.02;;;;;;;1.95;100.00;103010.66;5005617;28;20026;-60
2022/01/15 04:52:34;;;;;;;;;;;;;;;2.02;100.00;103017.31;5006406;28;20029;-60
2022/01/15 04:55:01;;;;;;;69.93;25.77;;;;;;;2.03;100.00;103016.34;5006286;28;19925;-59
2022/01/15 04:57:26;;;;;;;85.53;28.77;;;;;;;1.99;100.00;103012.13;5004957;28;20042;-59
2022/01/15 04:59:51;;;;;;;80.13;27.20;;;;;;;2.00;100.00;103007.59;5004189;28;20044;-59
2022/01/15 05:02:16;;;;;;;88.97;29.23;;;;;;;2.03;100.00;103007.34;4995971;28;20438;-59
2022/01/15 05:04:42;;;;;;;87.45;31.38;;;;;;;2.04;100.00;103009.06;5005575;28;20044;-59
2022/01/15 05:07:07;;;;;;;84.53;28.17;;;;;;;2.05;100.00;103006.22;5005282;28;20425;-60
2022/01/15 05:09:32;;;;;;;83.07;29.27;;;;;;;2.07;100.00;103009.66;5005972;28;20373;-60
2022/01/15 05:12:05;;;;;;;87.35;29.20;;;;;;;2.08;100.00;103006.00;5004238;28;20036;-59
2022/01/15 05:14:31;;;;;;;86.10;29.65;;;;;;;2.08;100.00;103000.56;5005267;28;20022;-59
2022/01/15 05:16:56;;;;;;;91.85;30.58;;;;;;;2.12;100.00;102997.59;5004675;28;20033;-59
2022/01/15 05:19:21;;;;;;;83.18;31.13;;;;;;;2.11;100.00;102999.47;5004865;28;20158;-59
2022/01/15 05:21:47;;;;;;;93.93;32.40;;;;;;;2.14;100.00;102988.38;5005283;28;20030;-59
2022/01/15 05:24:12;;;;;;;100.43;33.63;;;;;;;2.08;100.00;102987.03;5004988;28;20076;-59
2022/01/15 05:26:37;;;;;;;101.68;33.95;;;;;;;2.09;100.00;102977.03;5004448;28;20041;-60
2022/01/15 05:29:03;;;;;;;94.82;32.67;;;;;;;2.13;100.00;102981.25;5004669;28;20026;-60
2022/01/15 05:31:28;;;;;;;99.18;32.58;;;;;;;2.12;100.00;102974.06;5004267;28;20463;-59
2022/01/15 05:33:54;;;;;;;103.05;35.05;;;;;;;2.14;100.00;102973.97;5005413;28;20022;-59
2022/01/15 05:36:19;;;;;;;100.75;36.17;;;;;;;2.16;100.00;102971.97;5004498;28;20461;-59
2022/01/15 05:38:45;;;;;;;108.30;36.40;;;;;;;2.13;100.00;102974.94;5005487;28;20121;-59
2022/01/15 05:41:10;;;;;;;107.45;35.40;;;;;;;2.13;100.00;102974.94;5002647;28;20520;-59
2022/01/15 05:43:35;;;;;;;112.05;34.97;;;;;;;2.14;100.00;102971.25;5003130;28;20076;-59
2022/01/15 05:46:01;;;;;;;110.03;36.53;;;;;;;2.10;100.00;102961.63;5004342;28;20014;-59
2022/01/15 05:48:26;;;;;;;123.25;37.38;;;;;;;2.09;100.00;102958.06;5005454;28;20060;-59
2022/01/15 05:50:51;;;;;;;117.53;37.40;;;;;;;2.10;100.00;102958.94;5004495;28;20695;-59
2022/01/15 05:53:17;;;;;;;113.25;35.78;;;;;;;2.11;100.00;102952.50;5004366;28;20045;-59
2022/01/15 05:55:42;;;;;;;118.07;36.17;;;;;;;2.10;100.00;102948.09;5004489;28;20443;-59
2022/01/15 05:58:07;;;;;;;107.88;37.03;;;;;;;2.13;100.00;102947.81;5004281;28;20080;-60
2022/01/15 06:00:34;;;;;;;111.40;33.28;;;;;;;2.11;100.00;102942.53;5003404;28;20045;-59
2022/01/15 06:02:59;;;;;;;123.45;36.22;;;;;;;2.11;100.00;102936.25;5005180;28;20114;-59
2022/01/15 06:05:24;;;;;;;123.80;35.78;;;;;;;2.13;100.00;102937.88;5003474;28;20109;-59
2022/01/15 06:07:50;;;;;;;124.50;36.08;;;;;;;2.12;100.00;102940.69;5002717;28;20041;-59
2022/01/15 06:10:15;;;;;;;116.80;35.88;;;;;;;2.12;100.00;102940.69;5002696;28;20595;-59
2022/01/15 06:12:44;;;;;;;123.85;39.20;;;;;;;2.18;100.00;102937.47;5002383;28;20072;-59
2022/01/15 06:15:12;;;;;;;118.18;36.10;;;;;;;2.14;100.00;102941.44;5001644;28;20113;-59
2022/01/15 06:17:38;;;;;;;126.18;36.80;;;;;;;2.11;100.00;102934.41;5001595;28;20036;-59
2022/01/15 06:20:04;;;;;;;108.25;34.25;;;;;;;2.14;100.00;102945.00;5001644;28;20652;-60
2022/01/15 06:22:29;;;;;;;128.60;36.47;;;;;;;2.11;100.00;102933.53;5003593;28;20504;-59
2022/01/15 06:24:54;;;;;;;122.45;36.95;;;;;;;2.12;100.00;102925.28;5004405;28;20124;-59
2022/01/15 06:27:20;;;;;;;133.40;37.22;;;;;;;2.08;100.00;102931.97;5003789;28;20458;-59
2022/01/15 06:29:46;;;;;;;131.15;38.15;;;;;;;2.10;100.00;102929.13;5002909;28;20053;-59
2022/01/15 06:32:12;;;;;;;125.63;38.63;;;;;;;2.05;100.00;102933.06;5003943;28;20026;-59
2022/01/15 06:34:37;;;;;;;139.93;38.70;;;;;;;2.07;100.00;102927.50;5004010;28;20036;-59
2022/01/15 06:37:04;;;;;;;127.35;37.40;;;;;;;2.06;100.00;102915.78;5003970;28;20022;-60
2022/01/15 06:39:30;;;;;;;103.95;30.27;;;;;;;2.05;100.00;102918.63;5004734;28;20022;-59
2022/01/15 06:41:55;;;;;;;119.47;35.85;;;;;;;2.12;100.00;102919.00;5001912;28;20076;-59
2022/01/15 06:44:21;;;;;;;128.07;37.25;;;;;;;2.04;100.00;102922.34;5003933;28;20194;-59
2022/01/15 06:46:46;;;;;;;102.30;32.15;;;;;;;2.04;100.00;102906.94;5018180;28;20022;-59
2022/01/15 06:49:11;;;;;;;103.43;32.00;;;;;;;2.00;100.00;102904.59;5002557;28;20073;-59
2022/01/15 06:51:36;;;;;;;100.03;31.75;;;;;;;1.98;100.00;102921.00;5003682;28;20120;-59
2022/01/15 06:54:02;;;;;;;108.40;32.05;;;;;;;1.96;100.00;102903.97;5003780;28;20030;-60
2022/01/15 06:56:27;;;;;;;118.72;33.08;;;;;;;1.97;100.00;102908.41;5003991;28;20061;-59
2022/01/15 06:58:53;;;;;;;114.53;35.35;;;;;;;2.00;100.00;102908.16;5003938;28;20076;-59
2022/01/15 07:01:18;;;;;;;102.70;30.88;;;;;;;2.01;100.00;102904.47;5002313;28;20041;-59
2022/01/15 07:03:43;;;;;;;101.70;30.30;;;;;;;2.01;100.00;102900.91;5004206;28;20384;-60
2022/01/15 07:06:08;;;;;;;113.30;32.00;;;;;;;2.02;100.00;102902.63;5003388;28;20096;-59
2022/01/15 07:08:34;;;;;;;121.72;31.10;;;;;;;2.01;100.00;102906.31;5003952;28;20093;-59
2022/01/15 07:10:59;;;;;;;115.57;30.90;;;;;;;1.98;100.00;102909.28;5003948;28;20018;-59
2022/01/15 07:13:26;;;;;;;107.88;31.35;;;;;;;1.99;100.00;102906.44;5003727;28;20029;-59
2022/01/15 07:15:52;;;;;;;105.38;30.52;;;;;;;2.02;100.00;102917.03;5002375;28;20033;-59
2022/01/15 07:18:17;;;;;;;131.18;33.15;;;;;;;2.01;100.00;102909.88;5002991;28;20613;-59
2022/01/15 07:20:43;;;;;;;123.20;33.67;;;;;;;2.02;100.00;102919.72;5003932;28;20473;-60
2022/01/15 07:23:09;;;;;;;110.55;29.55;;;;;;;2.02;100.00;102914.31;5003403;28;20056;-59
2022/01/15 07:25:34;;;;;;;115.18;33.25;;;;;;;2.00;100.00;102921.72;4984195;28;20528;-60
2022/01/15 07:28:00;;;;;;;135.23;33.55;;;;;;;1.96;100.00;102913.97;5001826;28;20645;-59
2022/01/15 07:30:26;;;;;;;138.65;36.65;;;;;;;1.93;100.00;102909.66;5002415;28;20022;-59
2022/01/15 07:32:51;;;;;;;183.55;38.67;;;;;;;1.91;100.00;102908.91;5003845;28;20036;-59
2022/01/15 07:35:17;;;;;;;133.02;34.38;;;;;;;1.91;100.00;102911.63;5005957;28;20058;-59
2022/01/15 07:37:42;;;;;;;152.52;35.97;;;;;;;1.86;100.00;102905.69;5007054;28;20299;-59
2022/01/15 07:40:08;;;;;;;152.55;37.30;;;;;;;1.84;100.00;102904.13;5006764;28;20033;-60
2022/01/15 07:42:39;;;;;;;160.80;35.55;;;;;;;1.81;100.00;102908.78;5005765;28;20037;-60
2022/01/15 07:45:10;;;;;;;138.43;34.50;;;;;;;1.80;100.00;102917.91;5006254;28;20084;-60
2022/01/15 07:47:36;;;;;;;106.15;30.55;;;;;;;1.81;100.00;102921.47;5006438;28;20022;-60
2022/01/15 07:50:04;;;;;;;118.82;32.25;;;;;;;1.72;100.00;102922.19;5006802;28;20022;-60
2022/01/15 07:52:31;;;;;;;149.48;33.13;;;;;;;1.68;100.00;102908.06;5007072;28;20038;-60
2022/01/15 07:54:58;;;;;;;120.40;30.15;;;;;;;1.67;100.00;102909.00;5006424;28;20033;-59
2022/01/15 07:57:24;;;;;;;137.38;31.50;;;;;;;1.69;100.00;102914.34;5006000;28;20104;-59
2022/01/15 07:59:50;;;;;;;170.80;31.10;;;;;;;1.69;100.00;102917.03;5005980;28;20034;-59
2022/01/15 08:02:16;;;;;;;154.68;32.50;;;;;;;1.68;100.00;102918.03;5005608;28;20481;-59
2022/01/15 08:04:41;;;;;;;144.73;33.67;;;;;;;1.67;100.00;102903.59;5006276;28;20149;-59
2022/01/15 08:07:09;;;;;;;159.75;33.92;;;;;;;1.67;100.00;102905.44;5005543;28;20021;-59
2022/01/15 08:09:34;;;;;;;163.63;35.97;;;;;;;1.70;100.00;102902.50;5005759;28;20083;-60
2022/01/15 08:11:59;;;;;;;123.28;28.58;;;;;;;1.75;100.00;102903.84;5006088;28;20381;-59
2022/01/15 08:14:25;;;;;;;132.88;30.60;;;;;;;1.69;100.00;102900.78;5004754;28;20022;-59
2022/01/15 08:16:50;;;;;;;115.78;26.27;;;;;;;1.62;100.00;102900.38;5005764;28;20408;-59
2022/01/15 08:19:15;;;;;;;135.00;30.25;;;;;;;1.59;100.00;102902.50;5005384;28;20022;-59
2022/01/15 08:21:42;;;;;;;118.18;28.50;;;;;;;1.61;100.00;102903.22;5005492;28;20038;-59
2022/01/15 08:24:09;;;;;;;97.80;22.95;;;;;;;1.55;100.00;102904.56;5004034;28;20026;-59
2022/01/15 08:26:34;;;;;;;91.63;23.67;;;;;;;1.62;100.00;102908.50;5004952;28;20612;-59
2022/01/15 08:28:59;;;;;;;94.47;23.10;;;;;;;1.54;100.00;102902.88;5006320;28;20100;-59
2022/01/15 08:31:25;;;;;;;111.60;24.02;;;;;;;1.49;100.00;102908.63;5004232;28;20388;-59
2022/01/15 08:33:50;;;;;;;132.40;24.13;;;;;;;1.46;100.00;102906.16;5005267;28;20128;-59
2022/01/15 08:36:17;;;;;;;86.63;20.48;;;;;;;1.44;100.00;102910.84;5005593;28;20022;-59
2022/01/15 08:38:42;;;;;;;139.55;25.02;;;;;;;1.38;100.00;102905.06;5005454;28;20590;-59
2022/01/15 08:41:08;;;;;;;103.00;22.45;;;;;;;1.39;100.00;102910.34;5004556;28;20120;-59
2022/01/15 08:43:33;;;;;;;113.40;23.10;;;;;;;1.38;100.00;102905.06;5005707;28;20033;-60
2022/01/15 08:45:58;;;;;;;98.60;22.15;;;;;;;1.41;100.00;102913.78;5004127;28;20472;-59
2022/01/15 08:48:23;;;;;;;80.95;23.60;;;;;;;1.42;100.00;102917.34;5003006;28;20104;-60
2022/01/15 08:50:49;;;;;;;75.38;21.55;;;;;;;1.41;100.00;102911.06;5004948;28;20447;-59
2022/01/15 08:53:17;;;;;;;68.45;20.77;;;;;;;1.35;100.00;102922.38;5005586;28;20022;-59
2022/01/15 08:55:43;;;;;;;65.63;18.95;;;;;;;1.32;100.00;102916.34;5003874;28;20385;-59
2022/01/15 08:58:09;;;;;;;80.75;19.85;;;;;;;1.31;100.00;102907.34;5003926;28;20037;-59
2022/01/15 09:00:34;;;;;;;104.90;20.38;;;;;;;1.28;100.00;102903.06;5003100;28;20038;-59
2022/01/15 09:03:00;;;;;;;102.55;19.85;;;;;;;1.28;100.00;102899.50;5005566;28;20037;-59
2022/01/15 09:05:25;;;;;;;74.97;21.85;;;;;;;1.29;100.00;102902.06;5003598;28;20029;-59
2022/01/15 09:07:51;;;;;;;70.30;20.80;;;;;;;1.32;100.00;102901.00;5004405;28;20134;-59
2022/01/15 09:10:17;;;;;;;70.47;20.67;;;;;;;1.32;100.00;102901.00;5004393;28;20036;-59
2022/01/15 09:12:43;;;;;;;76.50;19.65;;;;;;;1.30;100.00;102903.78;5002874;28;20585;-59
2022/01/15 09:15:09;;;;;;;73.57;21.35;;;;;;;1.23;100.00;102905.25;5003153;28;20055;-60
2022/01/15 09:17:35;;;;;;;67.80;20.23;;;;;;;1.19;100.00;102900.19;5004159;28;20112;-60
2022/01/15 09:20:00;;;;;;;67.45;20.42;;;;;;;1.18;100.00;102898.50;5003755;28;20108;-59
2022/01/15 09:22:25;;;;;;;73.25;20.52;;;;;;;1.11;100.00;102902.63;5004024;28;20112;-59
2022/01/15 09:24:51;;;;;;;73.15;22.95;;;;;;;1.05;100.00;102893.16;5003876;28;20154;-59
2022/01/15 09:30:12;;;;;;;76.65;23.10;;;;;;;1.14;100.00;102886.16;5003089;28;20519;-60
2022/01/15 09:32:40;;;;;;;56.33;21.30;;;;;;;1.16;100.00;102879.63;5003844;28;20034;-60
2022/01/15 09:35:06;;;;;;;72.25;20.77;;;;;;;1.14;100.00;102884.31;5003889;28;20554;-60
2022/01/15 09:37:31;;;;;;;76.72;22.05;;;;;;;1.12;100.00;102883.59;5004464;28;20034;-60
2022/01/15 09:39:57;;;;;;;64.78;19.52;;;;;;;1.07;100.00;102883.09;5005349;28;20406;-60
2022/01/15 09:42:23;;;;;;;61.38;20.40;;;;;;;1.05;100.00;102885.03;5004227;28;20033;-59
2022/01/15 09:44:50;;;;;;;48.05;19.33;;;;;;;1.01;100.00;102879.00;5004183;28;20551;-59
2022/01/15 09:47:16;;;;;;;69.10;19.40;;;;;;;1.01;100.00;102888.94;5004230;28;20057;-59
2022/01/15 09:49:45;;;;;;;61.97;21.30;;;;;;;1.06;100.00;102881.34;5004598;28;20042;-59
2022/01/15 09:52:11;;;;;;;;;;;;;;;1.17;100.00;102880.53;5005243;28;20026;-60
2022/01/15 09:54:38;;;;;;;59.72;21.13;;;;;;;0.98;100.00;102872.97;5004528;28;19913;-59
2022/01/15 09:57:03;;;;;;;52.00;19.33;;;;;;;1.02;100.00;102878.03;5003488;28;20048;-60
2022/01/15 09:59:29;;;;;;;49.05;21.02;;;;;;;0.97;100.00;102882.06;5004255;28;20029;-59
2022/01/15 10:01:54;;;;;;;64.28;24.55;;;;;;;1.02;100.00;102877.16;5004116;28;20026;-59
2022/01/15 10:04:19;;;;;;;59.00;22.73;;;;;;;1.01;100.00;102879.00;5003883;28;20083;-59
2022/01/15 10:07:06;;;;;;;67.18;26.00;;;;;;;1.05;100.00;102885.03;5004570;28;20515;-59
2022/01/15 10:09:32;;;;;;;58.83;25.05;;;;;;;1.10;100.00;102881.97;5004317;28;20103;-60
2022/01/15 10:11:57;;;;;;;72.30;26.77;;;;;;;1.12;100.00;102885.44;5004470;28;20029;-59
2022/01/15 10:14:28;;;;;;;71.53;28.95;;;;;;;1.13;100.00;102885.31;5003438;28;20464;-59
2022/01/15 10:16:56;;;;;;;76.22;29.75;;;;;;;1.14;100.00;102878.06;5004308;28;20092;-59
2022/01/15 10:19:39;;;;;;;78.77;28.47;;;;;;;1.22;100.00;102891.84;5004248;28;20220;-59
2022/01/15 10:22:21;;;;;;;77.50;30.08;;;;;;;1.15;100.00;102886.03;5003674;28;20288;-60
2022/01/15 10:24:55;;;;;;;77.80;29.70;;;;;;;1.19;100.00;102883.97;5004442;28;20026;-59
2022/01/15 10:27:35;;;;;;;83.07;29.92;;;;;;;1.16;100.00;102878.78;5003216;28;20581;-59
2022/01/15 10:30:20;;;;;;;69.07;29.25;;;;;;;1.16;100.00;102881.50;5003737;28;20045;-59
2022/01/15 10:33:06;;;;;;;72.63;28.67;;;;;;;1.17;100.00;102873.28;5004360;28;20511;-59
2022/01/15 10:35:34;;;;;;;71.38;30.23;;;;;;;1.18;100.00;102869.56;5003978;28;20030;-60
2022/01/15 10:38:02;;;;;;;;;;;;;;;1.34;100.00;102869.22;5005245;28;20022;-60
2022/01/15 10:40:38;;;;;;;67.68;27.70;;;;;;;1.15;100.00;102868.94;5004098;28;19920;-59
2022/01/15 10:43:04;;;;;;;74.80;29.73;;;;;;;1.18;100.00;102861.47;5003686;28;20038;-60
2022/01/15 10:45:31;;;;;;;75.90;31.27;;;;;;;1.23;100.00;102861.09;5003524;28;20089;-59
2022/01/15 10:48:00;;;;;;;73.68;31.80;;;;;;;1.29;100.00;102866.03;5004256;28;20077;-59
2022/01/15 10:50:31;;;;;;;67.57;27.85;;;;;;;1.32;100.00;102865.78;5003614;28;20101;-62
2022/01/15 10:53:03;;;;;;;71.45;26.33;;;;;;;1.33;100.00;102867.50;5004345;28;20022;-59
2022/01/15 10:55:31;;;;;;;69.05;26.20;;;;;;;1.28;100.00;102865.16;5003560;28;20034;-59
2022/01/15 10:57:59;;;;;;;73.05;29.20;;;;;;;1.28;100.00;102853.47;5000957;28;20436;-59
2022/01/15 11:00:30;;;;;;;74.57;27.63;;;;;;;1.28;100.00;102859.75;5001617;28;20495;-59
2022/01/15 11:03:01;;;;;;;72.88;28.50;;;;;;;1.34;100.00;102858.41;5003373;28;20108;-59
2022/01/15 11:05:30;;;;;;;70.10;28.15;;;;;;;1.37;100.00;102858.19;5003496;28;20120;-59
2022/01/15 11:08:02;;;;;;;70.45;29.88;;;;;;;1.38;100.00;102842.78;5003568;28;20041;-59
2022/01/15 11:10:28;;;;;;;65.70;26.77;;;;;;;1.37;100.00;102846.44;5006189;28;20112;-59
2022/01/15 11:12:54;;;;;;;63.85;28.35;;;;;;;1.36;100.00;102840.19;5007301;28;20100;-59
2022/01/15 11:15:19;;;;;;;68.32;29.38;;;;;;;1.31;100.00;102836.97;5005764;28;20478;-60
2022/01/15 11:17:46;;;;;;;68.07;29.65;;;;;;;1.36;100.00;102833.91;5006820;28;20036;-59
2022/01/15 11:20:15;;;;;;;66.43;27.83;;;;;;;1.39;100.00;102826.41;5003654;28;20033;-60
2022/01/15 11:22:41;;;;;;;68.38;27.63;;;;;;;1.41;100.00;102827.16;5006791;28;20034;-60
2022/01/15 11:25:08;;;;;;;66.63;27.83;;;;;;;1.40;100.00;102827.28;5006679;28;20037;-60